My Meet Scores
Olivia Pawlak, Gym Kinetics Gymnastics - MyMeetScores.com
Top100 | Top Teams | Upcoming Meets | Completed Meets | Latest | Add Scores | Help| Support | Bookmark and Share

Olivia Pawlak, Gym Kinetics Gymnastics
Personal Bests
LevelVault BarsBeamFloorAA
39.7259.425 9.5009.67538.100
49.4009.400 9.7509.37537.250
59.4009.200 9.3509.25036.300
Meet Scores
Date Meet Team Session Level Division Vault Bars Beam Floor AA
2020-01-17 2020 Bravo Classic Gym Kinetics Gymnastics 4A 5 Jr 9.400 12T 8.700 16T 7.950 19 9.225 6 35.275 17
2020-01-10 Leenda's Island Adventure Gym Kinetics Gymnastics PG1 5 10 Year Ol 8.600 11 9.100 5 8.800 7 9.250 7 35.750 7T
2019-12-20 Aspire Classic - 2019 Gym Kinetics Gymnastics 3A 5 Middle 9.175 8 8.175 19 9.350 8T 9.200 6 35.900 13
2019-12-07 Home for the Holidays 2019 Gym Kinetics Gymnastics 5 5 Middle 8.700 9T 9.200 5T 9.175 6 9.225 9 36.300 8
2019-03-22 Illinois Gymnastics State Championships Gym Kinetics Gymnastics 6 4 YT C 8.750 18T 9.400 4T 9.750 1 9.350 3T 37.250 4
2019-03-01 NGCD Academy's 2019 Flip'r Invitational Gym Kinetics Gymnastics 10 4 Child B 9.050 6 9.275 3 9.100 7 9.225 5T 36.650 5
2019-02-23 Kinetic Classic 2019 Gym Kinetics Gymnastics 1 4 Younger 8.750 13T 9.200 16 9.275 4T 9.300 6T 36.525 6
2019-02-08 Midwest Twisters Harley Meet Womens Gym Kinetics Gymnastics T10 4 9 yrs. 8.850 2 8.550 8T 9.275 3 9.250 4T 35.925 4T
2019-01-18 2019 Bravo Classic Gym Kinetics Gymnastics 3B 4 Child 9.100 13T 9.125 7 9.075 6 9.225 6T 36.525 4T
2019-01-11 St Jude Benefit Meet Gym Kinetics Gymnastics 6A 4 Jr B 9.400 2T 8.450 10 9.525 1 9.000 13 36.375 4T
2018-12-14 2018 Aspire Classic Gym Kinetics Gymnastics 6A 4 Younger 9.200 3T 8.950 13 8.575 21 9.375 2 36.100 10
2018-05-03 Illinois USA Gymnastics Level 3 State Championships Gym Kinetics Gymnastics 4 3 Youth E 9.725 2 9.400 6T 9.300 9T 9.675 1 38.100 3
2018-02-23 Kinetic Classic Gym Kinetics Gymnastics 4 3 Middle 9.100 33T 9.225 36T 9.500 8T 9.475 15T 37.300 16T
2018-02-09 Arizona Sunrays Classic Rock Invitational Gym Kinetics Gymnastics R02 3 JrA 9.275 4 8.925 4 9.300 1 9.625 1 37.125 1
2018-02-03 Midwest Games Gym Kinetics Gymnastics 5 3 JR B 8.900 10T 9.100 10T 9.125 6 9.600 1 36.725 4T
2018-01-19 2018 Bravo Classic Gym Kinetics Gymnastics 5B 3 Child 9.200 6 9.200 3T 8.825 8 9.200 2 36.425 4
2017-12-15 2017 Aspire Classic Gym Kinetics Gymnastics 10A 3 Middle 9.350 5T 8.625 16 9.000 3 9.600 1 36.575 5T
2017-03-30 2017 Illinois Level 3 & 5 State Gym Kinetics Gymnastics All 3 Ch D 9.300 19T 9.250 9T 9.275 6 9.225 8T 37.050 5
2017-02-09 Hal's Harley-Davidson Invite Gym Kinetics Gymnastics S11 3 7 under 9.150 3T 9.075 3 8.950 2T 9.125 4 36.300 2
2017-01-13 St Jude Benefit Meet Gym Kinetics Gymnastics 7A 3 Jr A 8.900 9 9.425 4 8.300 7T 8.250 14 34.875 9
2016-12-16 2016 Aspire Classic Gym Kinetics Gymnastics 11 3 Younger 8.800 14T 8.875 10 7.800 13 8.650 12T 34.125 12
Get your scores on
a t-shirt, pin, or hoodie

www.lazysuits.com